Time;durP1;ratioP1;P1;durP2;ratioP2;P2;SDS_P1;SDS_P2;PMS_P1;PMS_P2;Temp;Humidity;BMP_temperature;BMP_pressure;BME280_temperature;BME280_humidity;BME280_pressure;Samples;Min_cycle;Max_cycle;Signal;HPM_P1;HPM_P2
2024/02/20 00:02:23;;;;;;;6.63;3.28;;;8.70;99.90;;;;;;5016079;28;20223;-88
2024/02/20 00:04:52;;;;;;;4.38;2.80;;;8.80;99.90;;;;;;5008163;28;20202;-89
2024/02/20 00:07:19;;;;;;;4.97;3.00;;;8.80;99.70;;;;;;5019169;28;20199;-89
2024/02/20 00:09:47;;;;;;;5.10;3.08;;;8.80;99.80;;;;;;5009354;28;20214;-88
2024/02/20 00:12:14;;;;;;;4.07;2.75;;;8.60;99.90;;;;;;4983053;28;20209;-89
2024/02/20 00:14:43;;;;;;;3.55;2.67;;;8.40;99.90;;;;;;4996929;28;20203;-89
2024/02/20 00:17:10;;;;;;;4.18;2.70;;;8.40;99.90;;;;;;5010076;28;20229;-89
2024/02/20 00:19:37;;;;;;;2.75;2.28;;;8.20;99.90;;;;;;5015167;28;20273;-89
2024/02/20 00:22:06;;;;;;;5.72;2.50;;;8.30;99.90;;;;;;4997401;28;20195;-89
2024/02/20 00:24:33;;;;;;;3.97;2.35;;;8.30;99.60;;;;;;5014028;28;20584;-89
2024/02/20 00:27:00;;;;;;;4.03;2.30;;;8.30;99.80;;;;;;5010782;28;20203;-89
2024/02/20 00:29:27;;;;;;;2.72;2.28;;;8.20;99.80;;;;;;5004926;28;20207;-88
2024/02/20 00:31:55;;;;;;;5.45;2.40;;;8.20;99.60;;;;;;5014444;28;20246;-88
2024/02/20 00:34:22;;;;;;;2.50;2.00;;;8.30;99.80;;;;;;5013734;28;20648;-88
2024/02/20 00:36:49;;;;;;;3.70;2.60;;;8.30;99.90;;;;;;5014096;28;20560;-88
2024/02/20 00:39:18;;;;;;;4.47;2.10;;;8.20;99.90;;;;;;4997248;28;20248;-88
2024/02/20 00:41:46;;;;;;;5.18;2.30;;;8.20;99.80;;;;;;5014548;28;20203;-88
2024/02/20 00:44:14;;;;;;;3.47;2.65;;;8.20;99.80;;;;;;4977476;28;20232;-89
2024/02/20 00:46:41;;;;;;;4.68;2.25;;;8.10;99.90;;;;;;5010649;28;20543;-89
2024/02/20 00:49:08;;;;;;;5.22;2.53;;;8.10;99.90;;;;;;4999250;28;20207;-88
2024/02/20 00:51:35;;;;;;;4.13;2.60;;;8.10;99.90;;;;;;4997934;28;20302;-88
2024/02/20 00:54:03;;;;;;;6.05;2.70;;;8.20;99.90;;;;;;5007691;28;20194;-88
2024/02/20 00:56:32;;;;;;;6.25;2.72;;;8.20;99.90;;;;;;5004722;28;20549;-88
2024/02/20 00:58:59;;;;;;;5.13;2.90;;;8.20;99.90;;;;;;5014923;28;20206;-89
2024/02/20 01:01:26;;;;;;;4.82;2.60;;;8.10;99.90;;;;;;5008941;28;20207;-89
2024/02/20 01:03:52;;;;;;;3.92;2.35;;;8.10;99.90;;;;;;5014612;28;20249;-89
2024/02/20 01:06:20;;;;;;;4.60;2.70;;;8.10;99.90;;;;;;5014016;28;20195;-89
2024/02/20 01:08:47;;;;;;;5.28;2.65;;;8.10;99.90;;;;;;5013462;28;20672;-89
2024/02/20 01:11:15;;;;;;;4.18;2.75;;;8.10;99.90;;;;;;4980088;28;20582;-88
2024/02/20 01:13:44;;;;;;;3.72;1.90;;;8.10;99.90;;;;;;5013524;28;20199;-89
2024/02/20 01:16:11;;;;;;;2.65;1.77;;;8.00;99.90;;;;;;4988938;28;20250;-88
2024/02/20 01:18:41;;;;;;;3.25;2.03;;;7.90;99.90;;;;;;5007303;28;20704;-87
2024/02/20 01:21:09;;;;;;;3.92;1.92;;;7.70;99.90;;;;;;5014240;28;20207;-87
2024/02/20 01:23:39;;;;;;;2.88;1.50;;;7.70;99.90;;;;;;5014066;28;20606;-88
2024/02/20 01:26:05;;;;;;;3.05;1.60;;;7.60;99.90;;;;;;5013755;28;20213;-87
2024/02/20 01:28:32;;;;;;;1.83;1.40;;;7.40;99.90;;;;;;5012006;28;20241;-89
2024/02/20 01:31:01;;;;;;;1.92;1.58;;;7.30;99.90;;;;;;5011404;28;20199;-88
2024/02/20 01:33:28;;;;;;;2.28;1.73;;;7.20;99.90;;;;;;5013184;28;20724;-88
2024/02/20 01:35:55;;;;;;;1.70;1.60;;;7.10;99.90;;;;;;4996619;28;20203;-89
2024/02/20 01:38:22;;;;;;;3.03;1.70;;;7.10;99.90;;;;;;5014773;28;20215;-88
2024/02/20 01:40:51;;;;;;;2.88;1.60;;;7.10;99.90;;;;;;4997925;28;20680;-88
2024/02/20 01:43:20;;;;;;;3.08;1.83;;;7.10;99.90;;;;;;5017305;28;20222;-88
2024/02/20 01:45:47;;;;;;;3.15;1.70;;;7.20;99.90;;;;;;5009515;28;20253;-88
2024/02/20 01:48:16;;;;;;;3.90;2.20;;;7.20;99.90;;;;;;5007621;28;20199;-88
2024/02/20 01:50:43;;;;;;;6.85;1.98;;;7.20;99.90;;;;;;5007354;28;20649;-88
2024/02/20 01:53:10;;;;;;;4.60;1.98;;;7.20;99.90;;;;;;5017609;28;20206;-88
2024/02/20 01:55:38;;;;;;;3.72;2.00;;;7.30;99.90;;;;;;5017306;28;20214;-88
2024/02/20 02:14:15;;;;;;;2.25;1.92;;;7.50;99.90;;;;;;4939431;29;20330;-88
2024/02/20 02:16:44;;;;;;;1.77;1.42;;;7.40;99.90;;;;;;4939911;29;20200;-88
2024/02/20 02:19:11;;;;;;;1.35;1.20;;;7.30;99.90;;;;;;4939783;29;20240;-88
2024/02/20 02:22:25;;;;;;;2.97;1.10;;;7.20;99.90;;;;;;4939343;29;20209;-88
2024/02/20 02:24:51;;;;;;;2.67;1.13;;;7.10;99.90;;;;;;4938543;29;20201;-89
2024/02/20 02:27:20;;;;;;;1.20;1.10;;;7.20;99.90;;;;;;4938101;29;20206;-88
2024/02/20 02:29:48;;;;;;;2.30;0.95;;;7.10;99.90;;;;;;4938616;29;20210;-89
2024/02/20 02:32:15;;;;;;;1.30;1.20;;;7.00;99.90;;;;;;4925041;29;20301;-88
2024/02/20 02:34:42;;;;;;;0.90;0.90;;;7.10;99.90;;;;;;4968818;28;20261;-87
2024/02/20 02:37:08;;;;;;;1.13;1.00;;;7.10;99.90;;;;;;4939426;29;20238;-88
2024/02/20 02:39:35;;;;;;;1.77;1.10;;;7.00;99.90;;;;;;4939268;29;20220;-88
2024/02/20 02:42:02;;;;;;;1.17;1.00;;;7.20;99.90;;;;;;4939631;29;20624;-88
2024/02/20 02:44:30;;;;;;;2.15;1.17;;;7.20;99.90;;;;;;4939345;29;20663;-88
2024/02/20 02:46:57;;;;;;;1.40;0.98;;;7.20;99.90;;;;;;4922374;29;20199;-88
2024/02/20 02:49:24;;;;;;;1.27;1.10;;;7.20;99.90;;;;;;4953935;29;20202;-88
2024/02/20 02:51:51;;;;;;;2.08;1.25;;;7.20;99.90;;;;;;4937985;29;20209;-89
2024/02/20 02:54:18;;;;;;;1.10;1.00;;;7.20;99.90;;;;;;4930563;29;20607;-88
2024/02/20 02:59:48;;;;;;;2.03;1.88;;;7.10;99.90;;;;;;3458156;23;20261;-88
2024/02/20 03:02:14;;;;;;;2.38;1.10;;;7.10;99.90;;;;;;4994841;28;20212;-88
2024/02/20 03:04:41;;;;;;;2.05;1.20;;;7.20;99.90;;;;;;4993218;28;20227;-88
2024/02/20 03:07:08;;;;;;;1.67;1.10;;;7.20;99.90;;;;;;4989291;28;20594;-88
2024/02/20 03:09:35;;;;;;;2.42;1.20;;;7.20;99.90;;;;;;5006003;28;20214;-88
2024/02/20 03:12:02;;;;;;;1.85;1.20;;;7.10;99.90;;;;;;4977318;28;20219;-88
2024/02/20 03:14:29;;;;;;;1.98;1.30;;;7.30;99.90;;;;;;5014826;28;20640;-88
2024/02/20 03:16:58;;;;;;;1.73;1.20;;;7.20;99.90;;;;;;5015893;28;20257;-88
2024/02/20 03:19:50;;;;;;;1.20;1.10;;;7.10;99.90;;;;;;4976398;28;20236;-88
2024/02/20 03:22:50;;;;;;;1.65;1.30;;;7.00;99.90;;;;;;4982599;28;20290;-87
2024/02/20 03:25:18;;;;;;;1.52;1.25;;;7.10;99.90;;;;;;4980095;28;20208;-88
2024/02/20 03:27:44;;;;;;;2.00;1.20;;;7.20;99.90;;;;;;4979041;28;20200;-88
2024/02/20 03:30:21;;;;;;;1.60;1.30;;;7.20;99.90;;;;;;4979519;28;20215;-88
2024/02/20 03:32:50;;;;;;;1.52;1.40;;;7.20;99.90;;;;;;4996719;28;20200;-88
2024/02/20 03:35:21;;;;;;;1.70;1.40;;;7.20;99.90;;;;;;4988228;28;20205;-88
2024/02/20 03:37:49;;;;;;;1.85;1.30;;;7.10;99.90;;;;;;4981488;28;20234;-87
2024/02/20 03:40:16;;;;;;;1.77;1.50;;;7.10;99.90;;;;;;4994899;28;20204;-88
2024/02/20 03:42:43;;;;;;;1.95;1.50;;;7.00;99.90;;;;;;4996443;28;20210;-88
2024/02/20 03:45:10;;;;;;;3.28;1.40;;;7.10;99.90;;;;;;4995322;28;20208;-88
2024/02/20 03:47:37;;;;;;;2.30;1.67;;;7.10;99.90;;;;;;5011230;28;20207;-88
2024/02/20 03:50:07;;;;;;;2.38;1.63;;;7.10;99.90;;;;;;4979156;28;20255;-88
2024/02/20 03:52:34;;;;;;;2.03;1.60;;;7.00;99.90;;;;;;4977431;28;20251;-88
2024/02/20 03:55:01;;;;;;;2.10;1.50;;;7.00;99.90;;;;;;4993387;28;20203;-88
2024/02/20 03:57:28;;;;;;;1.83;1.73;;;7.00;99.90;;;;;;4992117;28;20245;-89
2024/02/20 03:59:56;;;;;;;2.70;1.70;;;7.00;99.90;;;;;;4978876;28;20208;-88
2024/02/20 04:02:23;;;;;;;3.03;1.80;;;7.10;99.90;;;;;;4979908;28;20210;-88
2024/02/20 04:04:50;;;;;;;3.67;2.00;;;7.10;99.90;;;;;;4973296;28;20195;-88
2024/02/20 04:07:19;;;;;;;1.73;1.63;;;7.00;99.90;;;;;;4995189;28;20215;-88
2024/02/20 04:09:46;;;;;;;2.40;1.50;;;7.00;99.90;;;;;;4996918;28;20200;-88
2024/02/20 04:12:13;;;;;;;2.00;1.80;;;7.00;99.90;;;;;;4980766;28;20618;-88
2024/02/20 04:14:40;;;;;;;2.55;1.90;;;7.00;99.90;;;;;;4976251;28;20201;-89
2024/02/20 04:17:06;;;;;;;3.15;1.98;;;7.10;99.90;;;;;;4974419;28;20216;-88
2024/02/20 04:19:33;;;;;;;2.85;2.00;;;7.10;99.90;;;;;;4987340;28;20228;-88
2024/02/20 04:22:01;;;;;;;3.15;2.38;;;7.00;99.90;;;;;;4965904;28;20329;-88
2024/02/20 04:24:29;;;;;;;2.70;2.00;;;7.00;99.90;;;;;;4972787;28;20621;-88
2024/02/20 04:26:57;;;;;;;3.15;2.40;;;7.00;99.90;;;;;;4984332;28;20661;-89
2024/02/20 04:29:24;;;;;;;3.58;2.17;;;7.00;99.90;;;;;;4990178;28;20208;-88
2024/02/20 04:31:51;;;;;;;2.83;2.30;;;6.90;99.90;;;;;;4997294;28;20214;-88
2024/02/20 04:34:18;;;;;;;2.35;2.10;;;7.00;99.90;;;;;;4998715;28;20551;-88
2024/02/20 04:36:45;;;;;;;3.58;2.47;;;7.00;99.90;;;;;;4988935;28;20208;-89
2024/02/20 04:39:12;;;;;;;3.08;2.30;;;6.90;99.90;;;;;;4973046;28;20676;-89
2024/02/20 04:41:40;;;;;;;5.10;2.20;;;6.90;99.90;;;;;;4989832;28;20214;-88
2024/02/20 04:44:07;;;;;;;3.05;2.20;;;6.90;99.90;;;;;;4986825;28;20223;-88
2024/02/20 04:46:34;;;;;;;3.13;2.13;;;6.90;99.90;;;;;;4988161;28;20200;-88
2024/02/20 04:49:01;;;;;;;5.40;2.35;;;6.90;99.90;;;;;;4993884;28;20204;-88
2024/02/20 04:51:30;;;;;;;2.60;2.30;;;6.90;99.90;;;;;;4990924;28;20204;-88
2024/02/20 04:53:57;;;;;;;3.13;2.35;;;6.90;99.90;;;;;;4995144;28;20211;-88
2024/02/20 04:56:24;;;;;;;3.45;2.60;;;6.90;99.90;;;;;;4976884;28;20711;-89
2024/02/20 04:58:52;;;;;;;3.53;2.40;;;6.90;99.90;;;;;;4992638;28;20717;-88
2024/02/20 05:01:19;;;;;;;4.35;2.83;;;6.80;99.90;;;;;;4972841;28;20207;-89
2024/02/20 05:03:47;;;;;;;2.60;2.40;;;6.90;99.90;;;;;;4986640;28;20208;-88
2024/02/20 05:06:14;;;;;;;3.93;2.57;;;6.90;99.90;;;;;;4974400;28;20559;-88
2024/02/20 05:08:41;;;;;;;3.42;2.58;;;6.90;99.90;;;;;;4992066;28;20212;-88
2024/02/20 05:11:08;;;;;;;3.80;2.55;;;6.80;99.90;;;;;;4992029;28;20562;-88
2024/02/20 05:13:35;;;;;;;3.00;2.70;;;6.80;99.90;;;;;;4992213;28;20830;-88
2024/02/20 05:16:04;;;;;;;6.50;2.90;;;6.70;99.90;;;;;;4988226;28;20201;-89
2024/02/20 05:18:31;;;;;;;3.95;2.78;;;6.70;99.90;;;;;;4975558;28;20212;-88
2024/02/20 05:20:58;;;;;;;4.15;2.97;;;6.70;99.90;;;;;;4989278;28;20214;-89
2024/02/20 05:23:27;;;;;;;5.38;2.88;;;6.70;99.90;;;;;;4980640;28;20206;-88
2024/02/20 05:25:54;;;;;;;6.38;2.65;;;6.70;99.90;;;;;;4990518;28;20626;-88
2024/02/20 05:28:27;;;;;;;3.38;2.78;;;6.70;99.90;;;;;;4972855;28;20653;-88
2024/02/20 05:30:54;;;;;;;3.83;2.78;;;6.70;99.90;;;;;;4986038;28;20235;-88
2024/02/20 05:33:23;;;;;;;3.10;2.50;;;6.80;99.90;;;;;;4991603;28;20668;-88
2024/02/20 05:35:50;;;;;;;5.18;2.97;;;6.70;99.90;;;;;;4995881;28;20218;-89
2024/02/20 05:38:18;;;;;;;3.60;2.58;;;6.70;99.90;;;;;;4992402;28;20220;-88
2024/02/20 05:40:45;;;;;;;5.13;2.83;;;6.60;99.90;;;;;;4990860;28;20199;-88
2024/02/20 05:43:12;;;;;;;5.53;3.05;;;6.60;99.90;;;;;;4976292;28;20660;-88
2024/02/20 05:45:39;;;;;;;4.80;3.10;;;6.60;99.90;;;;;;4994709;28;20207;-88
2024/02/20 05:48:07;;;;;;;3.65;2.90;;;6.60;99.90;;;;;;4989895;28;20204;-88
2024/02/20 05:50:35;;;;;;;4.63;2.97;;;6.60;99.90;;;;;;4990498;28;20221;-88
2024/02/20 05:53:09;;;;;;;4.93;3.25;;;6.60;99.90;;;;;;4983858;28;20204;-89
2024/02/20 05:55:36;;;;;;;4.40;3.40;;;6.60;99.90;;;;;;4970516;28;20640;-89
2024/02/20 05:58:03;;;;;;;3.90;3.35;;;6.70;99.90;;;;;;4973475;28;20700;-90
2024/02/20 06:00:35;;;;;;;4.72;3.50;;;6.60;99.90;;;;;;4987710;28;20219;-88
2024/02/20 06:03:02;;;;;;;4.53;3.77;;;6.50;99.90;;;;;;4984138;28;20204;-88
2024/02/20 06:05:29;;;;;;;6.00;3.73;;;6.60;99.90;;;;;;4982657;28;20543;-88
2024/02/20 06:07:57;;;;;;;4.90;3.47;;;6.60;99.90;;;;;;4987567;28;20207;-89
2024/02/20 06:10:27;;;;;;;6.57;3.57;;;6.60;99.90;;;;;;4982930;28;20201;-90
2024/02/20 06:12:58;;;;;;;5.53;4.00;;;6.60;99.90;;;;;;4975521;28;20227;-90
2024/02/20 06:15:24;;;;;;;6.28;3.85;;;6.70;99.90;;;;;;4986798;28;20531;-87
2024/02/20 06:18:12;;;;;;;5.57;3.70;;;6.80;99.90;;;;;;4999687;28;20205;-90
2024/02/20 06:20:41;;;;;;;7.23;3.87;;;6.70;99.90;;;;;;4973215;28;20204;-87
2024/02/20 06:23:09;;;;;;;5.53;3.67;;;6.70;99.90;;;;;;4977255;28;20208;-89
2024/02/20 06:26:30;;;;;;;6.37;3.70;;;6.70;99.90;;;;;;4994615;28;20275;-89
2024/02/20 06:29:11;;;;;;;5.82;3.72;;;6.70;99.90;;;;;;4997242;28;20212;-87
2024/02/20 06:31:38;;;;;;;8.60;4.15;;;6.70;99.90;;;;;;4997420;28;20613;-84
2024/02/20 06:34:09;;;;;;;4.97;4.20;;;6.70;99.90;;;;;;4997222;28;20628;-84
2024/02/20 06:36:35;;;;;;;8.05;3.90;;;6.70;99.90;;;;;;4996976;28;20279;-84
2024/02/20 06:39:51;;;;;;;7.27;4.07;;;6.70;99.90;;;;;;4979928;28;20616;-84
2024/02/20 06:42:20;;;;;;;6.00;3.65;;;6.80;99.90;;;;;;4995804;28;20204;-84
2024/02/20 06:44:48;;;;;;;5.30;3.73;;;6.80;99.90;;;;;;4999279;28;20290;-84
2024/02/20 06:47:15;;;;;;;3.60;3.10;;;6.80;99.90;;;;;;4991186;28;20201;-85
2024/02/20 06:49:49;;;;;;;5.87;3.20;;;6.80;99.90;;;;;;4991262;28;20230;-85
2024/02/20 06:52:16;;;;;;;4.85;3.03;;;6.70;99.90;;;;;;4991475;28;20232;-84
2024/02/20 06:54:45;;;;;;;4.30;3.08;;;6.70;99.90;;;;;;4991772;28;20210;-85
2024/02/20 06:57:15;;;;;;;4.57;2.63;;;6.60;99.90;;;;;;4962554;28;20260;-86
2024/02/20 06:59:43;;;;;;;3.13;2.13;;;6.70;99.90;;;;;;4988496;28;20226;-84
2024/02/20 07:02:10;;;;;;;3.27;1.90;;;6.60;99.90;;;;;;4996354;28;20192;-84
2024/02/20 07:04:40;;;;;;;2.67;2.20;;;6.50;99.90;;;;;;4995509;28;20295;-85
2024/02/20 07:07:07;;;;;;;2.80;2.27;;;6.40;99.90;;;;;;4978440;28;20192;-85
2024/02/20 07:09:35;;;;;;;3.55;2.28;;;6.50;99.90;;;;;;4993953;28;20203;-85
2024/02/20 07:12:03;;;;;;;2.83;2.27;;;6.60;99.90;;;;;;4995696;28;20196;-85
2024/02/20 07:14:30;;;;;;;2.33;2.13;;;6.60;99.90;;;;;;4994559;28;20203;-85
2024/02/20 07:16:58;;;;;;;2.90;2.60;;;6.50;99.90;;;;;;4995637;28;20204;-85
2024/02/20 07:19:25;;;;;;;2.93;2.30;;;6.60;99.90;;;;;;4995432;28;20220;-84
2024/02/20 07:21:52;;;;;;;3.40;2.27;;;6.50;99.90;;;;;;4987143;28;20201;-85
2024/02/20 07:24:20;;;;;;;3.10;2.40;;;6.40;99.90;;;;;;4977109;28;20203;-85
2024/02/20 07:26:47;;;;;;;4.47;2.50;;;6.50;99.90;;;;;;4994733;28;20234;-85
2024/02/20 07:29:18;;;;;;;4.37;2.70;;;6.50;99.90;;;;;;4996692;28;20214;-85
2024/02/20 07:31:45;;;;;;;5.73;2.73;;;6.60;99.90;;;;;;4989330;28;20200;-86
2024/02/20 07:34:13;;;;;;;3.60;2.40;;;6.60;99.90;;;;;;4998504;28;20559;-85
2024/02/20 07:36:40;;;;;;;3.40;2.80;;;6.60;99.90;;;;;;4995032;28;20218;-85
2024/02/20 07:39:08;;;;;;;4.30;2.80;;;6.60;99.90;;;;;;4996664;28;20227;-85
2024/02/20 07:41:35;;;;;;;4.53;3.03;;;6.60;99.90;;;;;;4999996;28;20204;-85
2024/02/20 07:44:02;;;;;;;3.88;2.83;;;6.60;99.90;;;;;;4995329;28;20544;-85
2024/02/20 07:46:32;;;;;;;3.57;3.03;;;6.70;99.90;;;;;;4994733;28;20204;-85
2024/02/20 07:48:58;;;;;;;3.95;3.25;;;6.60;99.90;;;;;;4996887;28;20196;-84
2024/02/20 07:51:27;;;;;;;5.07;3.13;;;6.70;99.90;;;;;;4996108;28;20194;-85
2024/02/20 07:53:54;;;;;;;7.35;3.42;;;6.60;99.90;;;;;;4978343;28;20208;-85
2024/02/20 12:48:13;;;;;;;9.32;2.28;;;8.80;72.60;;;;;;4937468;29;20173;-85
2024/02/20 13:09:21;;;;;;;5.70;1.58;;;8.80;55.00;;;;;;4934733;29;20296;-85
2024/02/20 13:11:48;;;;;;;10.68;2.13;;;8.80;55.90;;;;;;4937362;29;20275;-85
2024/02/20 13:41:51;;;;;;;7.22;2.15;;;8.90;43.30;;;;;;4940446;29;20197;-86
2024/02/20 14:27:14;;;;;;;8.82;2.70;;;8.50;48.80;;;;;;5017415;28;20195;-84
2024/02/20 14:29:40;;;;;;;6.35;2.28;;;8.60;50.10;;;;;;5005614;28;20227;-85
2024/02/20 14:32:10;;;;;;;8.98;2.58;;;8.60;51.10;;;;;;5012944;28;20210;-87
2024/02/20 14:34:37;;;;;;;9.77;2.63;;;8.60;51.50;;;;;;5006443;28;20662;-85
2024/02/20 14:40:32;;;;;;;9.50;2.67;;;8.40;51.80;;;;;;5017458;28;20743;-85
2024/02/20 15:15:26;;;;;;;6.35;2.30;;;8.80;42.60;;;;;;5016437;28;20206;-85
2024/02/20 15:28:27;;;;;;;5.53;2.00;;;8.80;42.50;;;;;;4996646;28;20180;-85
2024/02/20 15:34:45;;;;;;;6.05;2.28;;;8.80;42.70;;;;;;4996343;28;20210;-89
2024/02/20 15:41:09;;;;;;;6.75;2.03;;;8.80;43.80;;;;;;4996005;28;20211;-84
2024/02/20 15:43:37;;;;;;;9.52;2.33;;;8.80;44.40;;;;;;5003145;28;20199;-84
2024/02/20 15:46:04;;;;;;;6.82;1.98;;;8.80;40.40;;;;;;5014509;28;20703;-85
2024/02/20 15:48:32;;;;;;;5.47;1.73;;;8.80;39.50;;;;;;5015625;28;20196;-84
2024/02/20 15:50:58;;;;;;;7.35;2.13;;;8.70;39.80;;;;;;5016178;28;20195;-84
2024/02/20 16:33:01;;;;;;;7.25;2.05;;;7.60;48.50;;;;;;5007625;28;20227;-87
2024/02/20 16:36:23;;;;;;;5.13;1.73;;;7.50;51.50;;;;;;5014920;28;20187;-87
2024/02/20 16:38:50;;;;;;;7.20;1.85;;;7.60;48.20;;;;;;5014884;28;20200;-87
2024/02/20 16:44:42;;;;;;;10.77;3.00;;;7.50;48.30;;;;;;5012431;28;20218;-87
2024/02/20 16:47:08;;;;;;;7.60;1.80;;;7.40;47.60;;;;;;5016122;28;20504;-85
2024/02/20 16:49:38;;;;;;;10.05;2.40;;;7.40;48.20;;;;;;5012277;28;20227;-87
2024/02/20 16:52:06;;;;;;;7.53;1.83;;;7.40;48.10;;;;;;5013452;28;20697;-91
2024/02/20 16:54:33;;;;;;;5.20;2.17;;;7.30;49.30;;;;;;5011476;28;20726;-85
2024/02/20 16:57:04;;;;;;;9.27;2.17;;;7.30;50.20;;;;;;5085398;23;20230;-88
2024/02/20 16:59:31;;;;;;;7.70;2.17;;;7.20;51.20;;;;;;5013102;28;20222;-87
2024/02/20 17:01:58;;;;;;;7.45;2.08;;;7.10;53.00;;;;;;4988789;28;20206;-87
2024/02/20 17:04:47;;;;;;;12.57;2.20;;;7.10;51.60;;;;;;5008983;28;20651;-88
2024/02/20 17:07:16;;;;;;;7.75;2.22;;;7.10;51.70;;;;;;5006871;28;20294;-86
2024/02/20 17:09:43;;;;;;;7.65;2.47;;;7.10;52.50;;;;;;4979146;28;20191;-87
2024/02/20 17:12:10;;;;;;;6.95;2.38;;;7.10;52.10;;;;;;4993098;28;20290;-84
2024/02/20 17:14:36;;;;;;;6.95;2.22;;;7.10;53.10;;;;;;4991171;28;20207;-84
2024/02/20 17:17:04;;;;;;;5.32;2.13;;;7.10;52.50;;;;;;4997992;28;20556;-85
2024/02/20 17:19:31;;;;;;;8.80;2.70;;;7.20;52.00;;;;;;4987410;28;20199;-82
2024/02/20 17:21:59;;;;;;;5.60;2.20;;;7.20;51.50;;;;;;4990854;28;20565;-85
2024/02/20 17:24:26;;;;;;;8.90;2.50;;;7.20;52.00;;;;;;5002370;28;20200;-84
2024/02/20 17:27:09;;;;;;;10.30;2.63;;;7.20;53.80;;;;;;4986099;28;20200;-84
2024/02/20 17:29:37;;;;;;;7.10;2.17;;;7.10;52.40;;;;;;4993037;28;20210;-85
2024/02/20 17:32:06;;;;;;;7.25;2.40;;;7.10;52.80;;;;;;4976788;28;20415;-86
2024/02/20 17:34:32;;;;;;;3.58;1.83;;;7.20;52.80;;;;;;5001720;28;20194;-90
2024/02/20 17:37:05;;;;;;;8.23;2.20;;;7.20;51.80;;;;;;4999292;28;20207;-83
2024/02/20 17:39:55;;;;;;;4.28;2.00;;;7.20;53.00;;;;;;5006422;28;20242;-83
2024/02/20 17:42:22;;;;;;;6.13;2.38;;;7.10;53.60;;;;;;5010084;28;20199;-84
2024/02/20 17:44:49;;;;;;;6.72;2.45;;;7.00;54.20;;;;;;5004595;28;20199;-83
2024/02/20 17:47:18;;;;;;;9.32;2.30;;;7.00;54.90;;;;;;5013516;28;20682;-88
2024/02/20 17:49:44;;;;;;;6.05;2.28;;;7.10;53.00;;;;;;5013778;28;20641;-85
2024/02/20 17:52:22;;;;;;;7.85;2.47;;;7.00;53.60;;;;;;5014752;28;20192;-87
2024/02/20 17:55:18;;;;;;;7.50;2.30;;;6.90;56.10;;;;;;5013602;28;20206;-87
2024/02/20 17:57:48;;;;;;;6.15;2.28;;;6.90;56.10;;;;;;5093986;23;20235;-83
2024/02/20 18:00:16;;;;;;;8.15;2.35;;;6.90;55.80;;;;;;5002627;28;20564;-83
2024/02/20 18:02:43;;;;;;;6.82;2.45;;;6.80;56.70;;;;;;4988983;28;20640;-84
2024/02/20 18:05:10;;;;;;;5.30;2.22;;;6.70;57.40;;;;;;4994181;28;20196;-84
2024/02/20 18:07:38;;;;;;;4.95;2.45;;;6.70;56.90;;;;;;5013636;28;20196;-85
2024/02/20 18:10:06;;;;;;;6.18;2.47;;;6.70;57.00;;;;;;5006930;28;20196;-82
2024/02/20 18:12:33;;;;;;;10.52;3.03;;;6.70;57.40;;;;;;5004308;28;20227;-82
2024/02/20 18:15:04;;;;;;;6.53;2.90;;;6.70;58.10;;;;;;5010864;28;20203;-81
2024/02/20 18:17:30;;;;;;;5.78;2.45;;;6.70;58.10;;;;;;5007073;28;20207;-82
2024/02/20 18:19:57;;;;;;;9.23;2.80;;;6.60;61.60;;;;;;5007362;28;20203;-81
2024/02/20 18:22:24;;;;;;;6.32;2.78;;;6.50;62.70;;;;;;4994176;28;20258;-82
2024/02/20 18:24:52;;;;;;;7.38;2.95;;;6.50;63.50;;;;;;4993868;28;20196;-82
2024/02/20 18:27:19;;;;;;;7.65;2.10;;;6.50;62.50;;;;;;4995329;28;20203;-87
2024/02/20 18:29:46;;;;;;;5.88;2.40;;;6.50;62.90;;;;;;5008307;28;20200;-89
2024/02/20 18:32:13;;;;;;;4.60;2.20;;;6.50;62.10;;;;;;4996185;28;20568;-86
2024/02/20 18:34:40;;;;;;;5.35;2.35;;;6.50;61.60;;;;;;4995718;28;20202;-86
2024/02/20 18:37:42;;;;;;;6.47;2.25;;;6.50;61.70;;;;;;4997170;28;20554;-83
2024/02/20 18:40:11;;;;;;;8.00;2.95;;;6.50;62.10;;;;;;4997993;28;20202;-83
2024/02/20 18:42:38;;;;;;;7.82;3.00;;;6.50;62.60;;;;;;4998092;28;20536;-83
2024/02/20 18:45:36;;;;;;;6.75;3.03;;;6.60;64.10;;;;;;4998093;28;20195;-83
2024/02/20 18:55:28;;;;;;;7.18;2.67;;;6.50;65.60;;;;;;4996397;28;20184;-83
2024/02/20 19:16:53;;;;;;;10.00;3.53;;;5.80;76.00;;;;;;4977446;28;20590;-83
2024/02/20 19:19:20;;;;;;;9.90;3.83;;;5.70;77.80;;;;;;4995823;28;20212;-83
2024/02/20 19:21:47;;;;;;;8.23;3.65;;;5.70;79.40;;;;;;4992162;28;20231;-85
2024/02/20 19:24:16;;;;;;;7.82;3.10;;;5.60;81.60;;;;;;4984709;28;20210;-85
2024/02/20 19:26:45;;;;;;;7.77;2.53;;;5.50;82.00;;;;;;4990987;28;20287;-86
2024/02/20 19:29:13;;;;;;;8.95;2.83;;;5.50;83.30;;;;;;4972921;28;20614;-83
2024/02/20 19:31:39;;;;;;;8.97;3.47;;;5.40;83.50;;;;;;4985370;28;20196;-85
2024/02/20 19:34:08;;;;;;;8.43;3.23;;;5.40;84.50;;;;;;4986446;28;20215;-85
2024/02/20 19:36:35;;;;;;;8.60;3.47;;;5.50;84.80;;;;;;4991085;28;20196;-84
2024/02/20 19:39:02;;;;;;;9.10;3.40;;;5.50;85.60;;;;;;4982725;28;20215;-90
2024/02/20 19:41:34;;;;;;;9.27;3.97;;;5.40;85.50;;;;;;4980999;28;20212;-90
2024/02/20 19:44:01;;;;;;;7.57;3.67;;;5.30;86.10;;;;;;4988680;28;20444;-85
2024/02/20 19:46:28;;;;;;;9.40;3.80;;;5.30;86.90;;;;;;4987108;28;20203;-85
2024/02/20 19:48:55;;;;;;;9.40;3.60;;;5.30;87.70;;;;;;4988185;28;20216;-85
2024/02/20 19:51:23;;;;;;;11.03;3.83;;;5.30;90.00;;;;;;4988286;28;20235;-85
2024/02/20 19:53:50;;;;;;;8.23;3.47;;;5.20;89.10;;;;;;4992295;28;20200;-84
2024/02/20 19:56:17;;;;;;;10.07;3.13;;;5.20;89.10;;;;;;4987508;28;20219;-85
2024/02/20 19:58:44;;;;;;;10.60;3.03;;;5.20;89.10;;;;;;4986496;28;20203;-85
2024/02/20 20:01:11;;;;;;;8.10;3.33;;;5.20;89.10;;;;;;4993263;28;20224;-84
2024/02/20 20:03:38;;;;;;;7.87;3.13;;;5.30;89.20;;;;;;4990571;28;20207;-84
2024/02/20 20:06:05;;;;;;;7.97;4.50;;;5.40;89.20;;;;;;4990526;28;20200;-85
2024/02/20 20:08:34;;;;;;;8.00;3.60;;;5.40;87.70;;;;;;4983589;28;20446;-85
2024/02/20 20:11:00;;;;;;;8.43;3.47;;;5.50;86.90;;;;;;4983771;28;20222;-84
2024/02/20 20:13:27;;;;;;;8.47;3.50;;;5.40;87.00;;;;;;4986418;28;20207;-85
2024/02/20 20:15:54;;;;;;;8.00;3.53;;;5.30;87.90;;;;;;4990212;28;20386;-84
2024/02/20 20:18:21;;;;;;;5.97;3.00;;;5.20;89.10;;;;;;4989956;28;20211;-87
2024/02/20 20:20:48;;;;;;;7.53;3.33;;;5.20;89.10;;;;;;4985185;28;20235;-87
2024/02/20 20:23:15;;;;;;;7.73;3.37;;;5.20;90.00;;;;;;4991881;28;20211;-86
2024/02/20 20:25:43;;;;;;;6.43;3.43;;;5.20;89.20;;;;;;4987618;28;20203;-84
2024/02/20 20:28:10;;;;;;;7.60;3.43;;;5.30;89.10;;;;;;4988808;28;20196;-83
2024/02/20 20:30:37;;;;;;;9.70;3.90;;;5.30;89.20;;;;;;4982730;28;20375;-84
2024/02/20 20:33:04;;;;;;;7.27;3.30;;;5.30;89.20;;;;;;4990920;28;20286;-84
2024/02/20 20:35:32;;;;;;;8.63;3.43;;;5.20;89.10;;;;;;4989878;28;20792;-85
2024/02/20 20:38:00;;;;;;;8.80;3.47;;;5.20;89.10;;;;;;4987985;28;20258;-84
2024/02/20 20:40:27;;;;;;;7.37;3.10;;;5.20;89.10;;;;;;4987828;28;20199;-83
2024/02/20 20:42:55;;;;;;;7.03;3.00;;;5.20;89.10;;;;;;4990323;28;20215;-84
2024/02/20 20:45:22;;;;;;;6.83;3.13;;;5.20;89.10;;;;;;4992955;28;20200;-83
2024/02/20 20:47:49;;;;;;;10.07;3.10;;;5.20;89.10;;;;;;4991868;28;20204;-84
2024/02/20 20:50:16;;;;;;;6.93;2.80;;;5.20;89.10;;;;;;4987360;28;20204;-84
2024/02/20 20:52:43;;;;;;;7.03;3.20;;;5.20;89.10;;;;;;4990615;28;20199;-84
2024/02/20 20:55:10;;;;;;;8.40;3.00;;;5.20;89.10;;;;;;4984910;28;20203;-84
2024/02/20 20:57:37;;;;;;;11.97;3.30;;;5.30;89.10;;;;;;4990534;28;20220;-83
2024/02/20 21:00:07;;;;;;;7.23;3.10;;;5.20;89.10;;;;;;4982666;28;20656;-87
2024/02/20 21:02:33;;;;;;;5.80;2.70;;;5.10;90.20;;;;;;4987733;28;20230;-84
2024/02/20 21:05:00;;;;;;;5.97;2.90;;;5.00;90.30;;;;;;4986271;28;20200;-85
2024/02/20 21:07:27;;;;;;;6.20;2.97;;;5.00;90.60;;;;;;4973074;28;20200;-84
2024/02/20 21:09:54;;;;;;;8.03;3.20;;;4.90;90.80;;;;;;4983138;28;20223;-83
2024/02/20 21:12:21;;;;;;;7.03;3.33;;;4.80;91.30;;;;;;4988980;28;20200;-91
2024/02/20 21:14:48;;;;;;;8.60;4.17;;;4.70;91.70;;;;;;4983881;28;20201;-87
2024/02/20 21:17:16;;;;;;;6.70;3.57;;;4.60;91.90;;;;;;4988977;28;20652;-86
2024/02/20 21:19:43;;;;;;;7.57;3.30;;;4.60;92.20;;;;;;4984514;28;20671;-84
2024/02/20 21:22:10;;;;;;;7.83;3.90;;;4.60;92.30;;;;;;4988990;28;20224;-85
2024/02/20 21:24:37;;;;;;;8.10;3.40;;;4.60;92.30;;;;;;4991448;28;20196;-84
2024/02/20 21:27:04;;;;;;;7.67;3.50;;;4.50;92.50;;;;;;4982684;28;20224;-84
2024/02/20 21:29:31;;;;;;;6.90;3.47;;;4.50;92.60;;;;;;4990501;28;20668;-84
2024/02/20 21:31:59;;;;;;;6.83;3.20;;;4.50;92.70;;;;;;4991636;28;20239;-84
2024/02/20 21:34:27;;;;;;;6.83;2.93;;;4.60;92.80;;;;;;4991102;28;20207;-84
2024/02/20 21:36:54;;;;;;;5.90;3.03;;;4.60;92.70;;;;;;4988285;28;20204;-83
2024/02/20 21:39:21;;;;;;;8.73;3.10;;;4.60;92.50;;;;;;4990643;28;20722;-84
2024/02/20 21:41:47;;;;;;;7.53;2.93;;;4.60;92.30;;;;;;4988754;28;20216;-83
2024/02/20 21:44:14;;;;;;;8.93;3.17;;;4.70;91.90;;;;;;4989473;28;20195;-84
2024/02/20 21:46:41;;;;;;;7.93;3.17;;;4.70;91.90;;;;;;4985371;28;20204;-84
2024/02/20 21:49:08;;;;;;;7.97;3.60;;;4.70;91.90;;;;;;4983052;28;20212;-85
2024/02/20 21:51:37;;;;;;;7.63;3.10;;;4.60;92.00;;;;;;4985148;28;20294;-85